Time;durP1;ratioP1;P1;durP2;ratioP2;P2;SDS_P1;SDS_P2;PMS_P1;PMS_P2;Temp;Humidity;BMP_temperature;BMP_pressure;BME280_temperature;BME280_humidity;BME280_pressure;Samples;Min_cycle;Max_cycle;Signal;HPM_P1;HPM_P2
2023/05/10 00:01:05;;;;;;;8.77;8.03;;;;;;;;;;5077501;28;20521;-81
2023/05/10 00:03:31;;;;;;;9.40;8.30;;;;;;;;;;5083070;28;20464;-81
2023/05/10 00:05:58;;;;;;;7.97;7.17;;;;;;;;;;5070702;28;20536;-81
2023/05/10 00:08:26;;;;;;;9.53;8.33;;;;;;;;;;5085131;28;20523;-80
2023/05/10 00:10:52;;;;;;;8.63;7.70;;;;;;;;;;5083534;28;20476;-80
2023/05/10 00:13:19;;;;;;;8.23;7.43;;;;;;;;;;5084847;28;20466;-80
2023/05/10 00:15:45;;;;;;;9.67;8.67;;;;;;;;;;5084602;28;20495;-81
2023/05/10 00:18:12;;;;;;;10.00;8.20;;;;;;;;;;5086116;28;20482;-80
2023/05/10 00:20:38;;;;;;;9.00;8.20;;;;;;;;;;5084242;28;20539;-80
2023/05/10 00:23:04;;;;;;;9.47;8.67;;;;;;;;;;5084713;28;20721;-80
2023/05/10 00:25:32;;;;;;;9.47;8.67;;;;;;;;;;5090795;28;21042;-80
2023/05/10 00:28:01;;;;;;;11.67;10.47;;;;;;;;;;5084611;28;20462;-80
2023/05/10 00:30:27;;;;;;;11.50;10.30;;;;;;;;;;5083271;28;20456;-80
2023/05/10 00:32:53;;;;;;;10.67;9.57;;;;;;;;;;5092672;28;20498;-80
2023/05/10 00:35:21;;;;;;;12.03;10.83;;;;;;;;;;5082456;28;20925;-79
2023/05/10 00:37:47;;;;;;;12.17;10.97;;;;;;;;;;5078388;28;20844;-80
2023/05/10 00:40:14;;;;;;;11.93;10.37;;;;;;;;;;5083985;28;21005;-79
2023/05/10 00:42:42;;;;;;;12.63;9.97;;;;;;;;;;5078535;28;20452;-79
2023/05/10 00:45:09;;;;;;;12.23;10.70;;;;;;;;;;5084144;28;20472;-80
2023/05/10 00:47:35;;;;;;;11.37;10.27;;;;;;;;;;5083070;28;20512;-80
2023/05/10 00:50:02;;;;;;;12.00;10.30;;;;;;;;;;5084216;28;20497;-80
2023/05/10 00:52:29;;;;;;;11.67;10.47;;;;;;;;;;5088663;28;20502;-80
2023/05/10 00:54:55;;;;;;;12.70;11.43;;;;;;;;;;5087119;28;20475;-81
2023/05/10 00:57:22;;;;;;;14.40;12.13;;;;;;;;;;5084235;28;20499;-80
2023/05/10 00:59:50;;;;;;;13.23;11.93;;;;;;;;;;5083999;28;20528;-81
2023/05/10 01:02:16;;;;;;;13.43;11.93;;;;;;;;;;5089851;28;20491;-81
2023/05/10 01:04:43;;;;;;;15.43;11.70;;;;;;;;;;5092445;28;20456;-81
2023/05/10 01:07:10;;;;;;;13.50;11.77;;;;;;;;;;5077573;28;20516;-81
2023/05/10 01:09:36;;;;;;;13.40;12.00;;;;;;;;;;5078070;28;20579;-80
2023/05/10 01:12:06;;;;;;;12.70;11.40;;;;;;;;;;5087959;28;20503;-81
2023/05/10 01:14:33;;;;;;;13.30;11.93;;;;;;;;;;5079133;28;20464;-81
2023/05/10 01:17:01;;;;;;;14.70;11.73;;;;;;;;;;5079398;28;20568;-81
2023/05/10 01:19:28;;;;;;;13.77;12.40;;;;;;;;;;5084410;28;20452;-81
2023/05/10 01:21:59;;;;;;;14.10;12.03;;;;;;;;;;5078968;28;20519;-82
2023/05/10 01:24:39;;;;;;;14.20;12.70;;;;;;;;;;5077427;28;20486;-82
2023/05/10 01:27:27;;;;;;;16.83;12.17;;;;;;;;;;5088360;28;20479;-81
2023/05/10 01:30:14;;;;;;;14.50;12.87;;;;;;;;;;5083176;28;20487;-80
2023/05/10 01:32:44;;;;;;;13.83;12.43;;;;;;;;;;5069953;28;20495;-81
2023/05/10 01:35:14;;;;;;;13.17;11.77;;;;;;;;;;5083957;28;21034;-81
2023/05/10 01:37:43;;;;;;;16.60;13.60;;;;;;;;;;5083062;28;20488;-81
2023/05/10 01:40:14;;;;;;;14.40;12.90;;;;;;;;;;5086026;28;20486;-82
2023/05/10 01:42:43;;;;;;;15.53;13.93;;;;;;;;;;5083098;28;20511;-82
2023/05/10 01:45:15;;;;;;;18.40;14.67;;;;;;;;;;5070217;28;20456;-81
2023/05/10 01:47:44;;;;;;;16.20;13.20;;;;;;;;;;5083360;28;20478;-82
2023/05/10 01:50:11;;;;;;;14.10;12.43;;;;;;;;;;5083156;28;20542;-82
2023/05/10 01:52:39;;;;;;;14.83;13.23;;;;;;;;;;5081821;28;20617;-82
2023/05/10 01:55:07;;;;;;;16.20;13.13;;;;;;;;;;5083577;28;20451;-82
2023/05/10 01:57:34;;;;;;;14.33;11.40;;;;;;;;;;5090884;28;20472;-82
2023/05/10 02:00:02;;;;;;;15.10;12.47;;;;;;;;;;5083474;28;20507;-82
2023/05/10 02:02:30;;;;;;;11.57;9.17;;;;;;;;;;5085125;28;20888;-81
2023/05/10 02:04:58;;;;;;;12.87;11.47;;;;;;;;;;5085340;28;20485;-76
2023/05/10 02:07:25;;;;;;;11.03;9.90;;;;;;;;;;5082220;28;20558;-76
2023/05/10 02:09:52;;;;;;;10.20;9.10;;;;;;;;;;5082598;28;20514;-75
2023/05/10 02:12:18;;;;;;;10.40;9.17;;;;;;;;;;5087053;28;21094;-76
2023/05/10 02:14:46;;;;;;;9.17;8.17;;;;;;;;;;5082967;28;20487;-76
2023/05/10 02:17:12;;;;;;;10.50;9.13;;;;;;;;;;5082196;28;20498;-76
2023/05/10 02:19:40;;;;;;;7.67;6.90;;;;;;;;;;5085648;28;20483;-75
2023/05/10 02:22:08;;;;;;;8.10;6.50;;;;;;;;;;5087638;28;20989;-75
2023/05/10 02:24:35;;;;;;;7.33;6.50;;;;;;;;;;5085557;28;20460;-75
2023/05/10 02:27:03;;;;;;;6.40;5.80;;;;;;;;;;5081516;28;20503;-75
2023/05/10 02:29:30;;;;;;;6.87;5.80;;;;;;;;;;5089891;28;20522;-76
2023/05/10 02:31:57;;;;;;;5.80;5.17;;;;;;;;;;5082110;28;20550;-75
2023/05/10 02:34:24;;;;;;;5.87;5.37;;;;;;;;;;5078884;28;20463;-75
2023/05/10 02:36:51;;;;;;;5.33;4.83;;;;;;;;;;5081795;28;20499;-75
2023/05/10 02:39:19;;;;;;;5.60;4.43;;;;;;;;;;5082782;28;20487;-75
2023/05/10 02:41:47;;;;;;;5.30;4.57;;;;;;;;;;5082072;28;20555;-75
2023/05/10 02:44:15;;;;;;;4.67;4.27;;;;;;;;;;5084268;28;20491;-75
2023/05/10 02:46:41;;;;;;;5.00;4.60;;;;;;;;;;5084610;28;20530;-75
2023/05/10 02:49:08;;;;;;;6.80;5.20;;;;;;;;;;5082199;28;20567;-75
2023/05/10 02:51:37;;;;;;;5.73;4.87;;;;;;;;;;5085138;28;20550;-75
2023/05/10 02:54:07;;;;;;;6.53;5.93;;;;;;;;;;5072784;28;20464;-75
2023/05/10 02:56:36;;;;;;;6.40;5.80;;;;;;;;;;5082501;28;20503;-75
2023/05/10 02:59:03;;;;;;;8.13;7.33;;;;;;;;;;5082374;28;20444;-75
2023/05/10 03:01:30;;;;;;;8.17;7.37;;;;;;;;;;5078343;28;20479;-75
2023/05/10 03:03:56;;;;;;;8.50;7.70;;;;;;;;;;5082401;28;20527;-75
2023/05/10 03:06:22;;;;;;;9.67;8.07;;;;;;;;;;5080650;28;20534;-75
2023/05/10 03:08:49;;;;;;;10.07;8.10;;;;;;;;;;5081589;28;20546;-75
2023/05/10 03:11:28;;;;;;;9.20;8.30;;;;;;;;;;5081893;28;20511;-74
2023/05/10 03:14:03;;;;;;;9.10;8.13;;;;;;;;;;5082722;28;20480;-75
2023/05/10 03:16:34;;;;;;;9.43;8.43;;;;;;;;;;5072771;28;20530;-74
2023/05/10 03:19:03;;;;;;;12.07;8.57;;;;;;;;;;5080130;28;20462;-74
2023/05/10 03:21:31;;;;;;;12.27;10.47;;;;;;;;;;5088192;28;20529;-74
2023/05/10 03:23:59;;;;;;;12.33;11.03;;;;;;;;;;5084018;28;20457;-74
2023/05/10 03:26:27;;;;;;;12.90;11.60;;;;;;;;;;5081007;28;21062;-74
2023/05/10 03:28:53;;;;;;;13.90;11.97;;;;;;;;;;5088290;28;20460;-74
2023/05/10 03:31:21;;;;;;;12.60;10.47;;;;;;;;;;5088996;28;20479;-74
2023/05/10 03:33:48;;;;;;;10.97;9.73;;;;;;;;;;5081573;28;20459;-74
2023/05/10 03:36:15;;;;;;;11.17;9.70;;;;;;;;;;5080984;28;20472;-74
2023/05/10 03:38:41;;;;;;;9.63;8.63;;;;;;;;;;5081738;28;20506;-74
2023/05/10 03:41:08;;;;;;;9.83;8.70;;;;;;;;;;5084160;28;20915;-74
2023/05/10 03:43:34;;;;;;;12.77;10.00;;;;;;;;;;5082604;28;20523;-74
2023/05/10 03:46:02;;;;;;;9.37;7.73;;;;;;;;;;5081483;28;20927;-75
2023/05/10 03:48:30;;;;;;;9.43;8.20;;;;;;;;;;5081789;28;20479;-75
2023/05/10 03:50:56;;;;;;;8.17;7.27;;;;;;;;;;5082140;28;20551;-75
2023/05/10 03:53:22;;;;;;;8.10;6.60;;;;;;;;;;5092856;28;20531;-75
2023/05/10 03:55:49;;;;;;;7.00;6.30;;;;;;;;;;5087517;28;20472;-75
2023/05/10 03:58:15;;;;;;;8.77;6.00;;;;;;;;;;5082455;28;20470;-75
2023/05/10 04:00:44;;;;;;;6.73;6.10;;;;;;;;;;5087474;28;20467;-75
2023/05/10 04:03:11;;;;;;;6.00;5.40;;;;;;;;;;5076164;28;20452;-74
2023/05/10 04:05:39;;;;;;;5.40;4.90;;;;;;;;;;5084876;28;20499;-74
2023/05/10 04:08:05;;;;;;;6.13;5.53;;;;;;;;;;5081213;28;20500;-74
2023/05/10 04:10:32;;;;;;;7.20;6.13;;;;;;;;;;5075006;28;20490;-74
2023/05/10 04:12:58;;;;;;;7.27;4.90;;;;;;;;;;5078410;28;20483;-74
2023/05/10 04:15:25;;;;;;;5.30;4.80;;;;;;;;;;5079564;28;20453;-75
2023/05/10 04:17:51;;;;;;;5.43;4.10;;;;;;;;;;5077802;28;20459;-75
2023/05/10 04:20:18;;;;;;;4.33;3.90;;;;;;;;;;5067085;28;20890;-74
2023/05/10 04:22:45;;;;;;;3.73;3.33;;;;;;;;;;5079975;28;20522;-74
2023/05/10 04:25:12;;;;;;;2.90;2.70;;;;;;;;;;5077957;28;20475;-74
2023/05/10 04:27:38;;;;;;;2.60;2.40;;;;;;;;;;5075353;28;20816;-74
2023/05/10 04:30:05;;;;;;;3.27;2.40;;;;;;;;;;5084719;28;20554;-74
2023/05/10 04:32:32;;;;;;;3.50;2.37;;;;;;;;;;5085243;28;21007;-74
2023/05/10 04:34:58;;;;;;;2.60;2.40;;;;;;;;;;5070983;28;20460;-76
2023/05/10 04:37:25;;;;;;;2.47;2.27;;;;;;;;;;5068391;28;20506;-76
2023/05/10 04:39:52;;;;;;;2.33;2.13;;;;;;;;;;5065999;28;20457;-76
2023/05/10 04:42:19;;;;;;;2.90;2.10;;;;;;;;;;5062035;28;20476;-76
2023/05/10 04:44:45;;;;;;;3.67;1.60;;;;;;;;;;5086434;28;20483;-76
2023/05/10 04:47:13;;;;;;;1.70;1.60;;;;;;;;;;5085830;28;20537;-76
2023/05/10 04:49:39;;;;;;;1.53;1.40;;;;;;;;;;5079919;28;20518;-75
2023/05/10 04:52:06;;;;;;;1.57;1.40;;;;;;;;;;5075945;28;20479;-76
2023/05/10 04:54:32;;;;;;;1.60;1.50;;;;;;;;;;5092123;28;20459;-75
2023/05/10 04:57:00;;;;;;;2.00;1.80;;;;;;;;;;5079416;28;20572;-75
2023/05/10 04:59:26;;;;;;;2.33;1.80;;;;;;;;;;5090278;28;20487;-75
2023/05/10 05:01:53;;;;;;;2.17;1.97;;;;;;;;;;5089918;28;20508;-75
2023/05/10 05:04:19;;;;;;;6.23;2.20;;;;;;;;;;5087699;28;20543;-81
2023/05/10 05:06:45;;;;;;;2.37;1.83;;;;;;;;;;5084907;28;20483;-75
2023/05/10 05:09:12;;;;;;;1.83;1.73;;;;;;;;;;5092274;28;20519;-74
2023/05/10 05:11:40;;;;;;;3.53;2.60;;;;;;;;;;5078182;28;20498;-75
2023/05/10 05:14:08;;;;;;;5.03;2.70;;;;;;;;;;5089007;28;20530;-86
2023/05/10 05:16:34;;;;;;;4.40;3.00;;;;;;;;;;5088674;28;20554;-86
2023/05/10 05:19:01;;;;;;;3.40;3.10;;;;;;;;;;5085875;28;20483;-85
2023/05/10 05:21:28;;;;;;;4.10;3.23;;;;;;;;;;5082533;28;20468;-85
2023/05/10 05:23:55;;;;;;;3.60;3.30;;;;;;;;;;5085894;28;20494;-83
2023/05/10 05:26:21;;;;;;;4.50;4.10;;;;;;;;;;5082694;28;20524;-83
2023/05/10 05:28:48;;;;;;;3.90;3.60;;;;;;;;;;5086526;28;20459;-84
2023/05/10 05:31:16;;;;;;;4.20;3.90;;;;;;;;;;5078386;28;20483;-86
2023/05/10 05:33:42;;;;;;;4.70;4.30;;;;;;;;;;5082258;28;20443;-85
2023/05/10 05:36:09;;;;;;;4.40;4.00;;;;;;;;;;5080195;28;21556;-86
2023/05/10 05:38:36;;;;;;;5.37;4.87;;;;;;;;;;5083481;28;20508;-85
2023/05/10 05:41:02;;;;;;;4.03;3.67;;;;;;;;;;5081707;28;20940;-85
2023/05/10 05:43:29;;;;;;;5.30;4.80;;;;;;;;;;5084635;28;20540;-85
2023/05/10 05:45:57;;;;;;;5.00;4.60;;;;;;;;;;5080679;28;20476;-85
2023/05/10 05:48:25;;;;;;;4.80;4.40;;;;;;;;;;5082211;28;20491;-85
2023/05/10 05:50:55;;;;;;;5.23;3.97;;;;;;;;;;5080435;28;20503;-72
2023/05/10 05:53:21;;;;;;;5.63;5.13;;;;;;;;;;5081850;28;20456;-71
2023/05/10 05:55:55;;;;;;;4.80;4.40;;;;;;;;;;5081545;28;20504;-71
2023/05/10 05:58:21;;;;;;;4.67;4.17;;;;;;;;;;5080187;28;20490;-71
2023/05/10 06:00:47;;;;;;;5.40;4.73;;;;;;;;;;5086600;28;20475;-71
2023/05/10 06:03:14;;;;;;;4.20;3.80;;;;;;;;;;5081264;28;20502;-71
2023/05/10 06:05:42;;;;;;;4.97;4.50;;;;;;;;;;5076867;28;20506;-71
2023/05/10 06:08:08;;;;;;;4.63;4.20;;;;;;;;;;5084723;28;20550;-71
2023/05/10 06:10:35;;;;;;;4.77;4.37;;;;;;;;;;5080226;28;20546;-70
2023/05/10 06:13:01;;;;;;;8.50;5.10;;;;;;;;;;5082183;28;20550;-70
2023/05/10 06:15:28;;;;;;;4.70;4.30;;;;;;;;;;5082305;28;20475;-71
2023/05/10 06:17:54;;;;;;;5.10;4.43;;;;;;;;;;5088264;28;21021;-70
2023/05/10 06:20:20;;;;;;;4.80;4.20;;;;;;;;;;5079000;28;20475;-72
2023/05/10 06:22:48;;;;;;;4.60;4.20;;;;;;;;;;5083819;28;20456;-71
2023/05/10 06:25:17;;;;;;;3.90;3.50;;;;;;;;;;5079098;28;20467;-71
2023/05/10 06:27:44;;;;;;;5.93;4.03;;;;;;;;;;5079337;28;20454;-71
2023/05/10 06:30:13;;;;;;;4.53;4.13;;;;;;;;;;5079131;28;20525;-71
2023/05/10 06:32:39;;;;;;;4.43;4.03;;;;;;;;;;5080505;28;20448;-71
2023/05/10 06:35:06;;;;;;;4.40;3.87;;;;;;;;;;5078865;28;20521;-70
2023/05/10 06:37:33;;;;;;;5.17;4.67;;;;;;;;;;5075993;28;20468;-70
2023/05/10 06:40:01;;;;;;;5.50;4.83;;;;;;;;;;5081985;28;20543;-71
2023/05/10 06:42:28;;;;;;;6.03;4.30;;;;;;;;;;5082040;28;20484;-70
2023/05/10 06:44:54;;;;;;;10.10;5.00;;;;;;;;;;5081707;28;20555;-71
2023/05/10 06:47:21;;;;;;;4.77;4.37;;;;;;;;;;5081277;28;20484;-71
2023/05/10 06:49:48;;;;;;;5.27;4.20;;;;;;;;;;5083477;28;20456;-71
2023/05/10 06:52:14;;;;;;;5.63;5.13;;;;;;;;;;5078468;28;20478;-71
2023/05/10 06:54:41;;;;;;;4.00;3.70;;;;;;;;;;5083702;28;20506;-71
2023/05/10 06:57:09;;;;;;;4.43;4.03;;;;;;;;;;5079328;28;20518;-71
2023/05/10 06:59:36;;;;;;;6.13;4.23;;;;;;;;;;5082983;28;20463;-71
2023/05/10 07:02:03;;;;;;;4.20;3.47;;;;;;;;;;5079640;28;20472;-75
2023/05/10 07:04:29;;;;;;;7.80;3.97;;;;;;;;;;5085132;28;20459;-73
2023/05/10 07:06:56;;;;;;;4.87;4.30;;;;;;;;;;5091410;28;20472;-74
2023/05/10 07:09:24;;;;;;;4.70;4.20;;;;;;;;;;5090066;28;20490;-74
2023/05/10 07:11:50;;;;;;;4.80;3.93;;;;;;;;;;5081941;28;20480;-74
2023/05/10 07:14:18;;;;;;;5.70;4.43;;;;;;;;;;5082470;28;20456;-75
2023/05/10 07:16:45;;;;;;;4.37;3.87;;;;;;;;;;5080484;28;20475;-75
2023/05/10 07:19:11;;;;;;;5.83;4.13;;;;;;;;;;5084832;28;20451;-74
2023/05/10 07:21:40;;;;;;;6.23;4.53;;;;;;;;;;5082860;28;20463;-74
2023/05/10 07:24:06;;;;;;;4.87;4.37;;;;;;;;;;5076274;28;20459;-75
2023/05/10 07:26:33;;;;;;;6.07;4.13;;;;;;;;;;5087995;28;20480;-75
2023/05/10 07:28:59;;;;;;;5.50;5.00;;;;;;;;;;5083330;28;20451;-76
2023/05/10 07:31:27;;;;;;;6.07;4.90;;;;;;;;;;5095770;28;20505;-74
2023/05/10 07:33:53;;;;;;;5.90;5.30;;;;;;;;;;5081606;28;20489;-75
2023/05/10 07:36:20;;;;;;;6.67;5.30;;;;;;;;;;5079670;28;20494;-75
2023/05/10 07:38:46;;;;;;;7.90;5.90;;;;;;;;;;5081523;28;20451;-75
2023/05/10 07:41:13;;;;;;;6.50;5.90;;;;;;;;;;5083184;28;20511;-74
2023/05/10 07:43:39;;;;;;;9.27;6.77;;;;;;;;;;5090210;28;20471;-74
2023/05/10 07:46:06;;;;;;;9.37;7.17;;;;;;;;;;5088765;28;20487;-74
2023/05/10 07:48:34;;;;;;;9.53;6.20;;;;;;;;;;5087538;28;20450;-74
2023/05/10 07:51:00;;;;;;;11.03;8.00;;;;;;;;;;5082086;28;21036;-75
2023/05/10 07:53:27;;;;;;;8.97;7.30;;;;;;;;;;5080045;28;20608;-72
2023/05/10 07:55:55;;;;;;;10.07;8.17;;;;;;;;;;5090351;28;20483;-71
2023/05/10 07:58:22;;;;;;;14.23;8.90;;;;;;;;;;5078330;28;20495;-72
2023/05/10 08:00:49;;;;;;;11.20;8.43;;;;;;;;;;5089151;28;20478;-72
2023/05/10 08:03:15;;;;;;;11.70;9.43;;;;;;;;;;5081138;28;20463;-73
2023/05/10 08:05:43;;;;;;;14.87;9.43;;;;;;;;;;5080530;28;20467;-73
2023/05/10 08:08:10;;;;;;;15.93;10.17;;;;;;;;;;5085432;28;20501;-72
2023/05/10 08:10:36;;;;;;;13.57;10.30;;;;;;;;;;5083651;28;20488;-73
2023/05/10 08:13:02;;;;;;;11.30;10.10;;;;;;;;;;5081068;28;20479;-75
2023/05/10 08:15:29;;;;;;;13.53;11.30;;;;;;;;;;5086516;28;20504;-75
2023/05/10 08:17:55;;;;;;;15.40;11.73;;;;;;;;;;5091718;28;20446;-74
2023/05/10 08:20:22;;;;;;;16.07;13.00;;;;;;;;;;5083272;28;20500;-74
2023/05/10 08:22:50;;;;;;;17.43;11.20;;;;;;;;;;5086842;28;20466;-74
2023/05/10 08:25:17;;;;;;;17.37;11.53;;;;;;;;;;5090632;28;20523;-74
2023/05/10 08:27:43;;;;;;;18.00;12.80;;;;;;;;;;5083063;28;20443;-74
2023/05/10 08:30:10;;;;;;;14.33;11.70;;;;;;;;;;5077861;28;20716;-75
2023/05/10 08:32:37;;;;;;;15.33;12.33;;;;;;;;;;5086174;28;20570;-74
2023/05/10 08:35:04;;;;;;;17.57;13.00;;;;;;;;;;5085997;28;20460;-75
2023/05/10 08:37:32;;;;;;;16.77;12.43;;;;;;;;;;5084107;28;20901;-75
2023/05/10 08:39:59;;;;;;;18.40;13.27;;;;;;;;;;5085776;28;20463;-75
2023/05/10 08:42:29;;;;;;;16.53;13.50;;;;;;;;;;5083751;28;20525;-75
2023/05/10 08:44:57;;;;;;;20.00;12.97;;;;;;;;;;5083631;28;20470;-75
2023/05/10 08:47:23;;;;;;;16.10;12.37;;;;;;;;;;5084423;28;20518;-75
2023/05/10 08:49:50;;;;;;;16.40;12.20;;;;;;;;;;5087878;28;20463;-76
2023/05/10 08:52:18;;;;;;;18.10;11.60;;;;;;;;;;5082517;28;20571;-75
2023/05/10 08:54:44;;;;;;;14.60;11.50;;;;;;;;;;5092547;28;20463;-75
2023/05/10 08:57:12;;;;;;;16.43;12.70;;;;;;;;;;5090174;28;20480;-75
2023/05/10 08:59:39;;;;;;;15.00;11.10;;;;;;;;;;5086208;28;20471;-76
2023/05/10 09:02:06;;;;;;;15.97;11.80;;;;;;;;;;5088482;28;20480;-76
2023/05/10 09:04:33;;;;;;;14.70;12.50;;;;;;;;;;5089571;28;20456;-75
2023/05/10 09:07:01;;;;;;;16.70;11.70;;;;;;;;;;5089596;28;20471;-75
2023/05/10 09:09:28;;;;;;;14.07;11.27;;;;;;;;;;5083441;28;20506;-75
2023/05/10 09:11:55;;;;;;;18.50;12.20;;;;;;;;;;5088238;28;20484;-75
2023/05/10 09:14:24;;;;;;;15.30;12.03;;;;;;;;;;5083375;28;20893;-75
2023/05/10 09:16:51;;;;;;;17.13;12.33;;;;;;;;;;5088360;28;20476;-75
2023/05/10 09:19:17;;;;;;;12.17;9.83;;;;;;;;;;5092210;28;20531;-74
2023/05/10 09:21:44;;;;;;;14.70;10.90;;;;;;;;;;5082207;28;20472;-75
2023/05/10 09:24:10;;;;;;;16.23;11.80;;;;;;;;;;5085682;28;20464;-75
2023/05/10 09:26:46;;;;;;;13.90;11.17;;;;;;;;;;5079820;28;20482;-75
2023/05/10 09:29:13;;;;;;;15.17;11.63;;;;;;;;;;5080586;28;20470;-75
2023/05/10 09:31:50;;;;;;;16.77;12.33;;;;;;;;;;5082203;28;20928;-74
2023/05/10 09:34:18;;;;;;;18.27;13.20;;;;;;;;;;5082282;28;20963;-75
2023/05/10 09:36:57;;;;;;;19.10;13.20;;;;;;;;;;5083498;28;20487;-74
2023/05/10 09:39:31;;;;;;;19.03;14.20;;;;;;;;;;5084363;28;20456;-75
2023/05/10 09:41:58;;;;;;;17.03;13.87;;;;;;;;;;5082569;28;20498;-75
2023/05/10 09:44:26;;;;;;;19.33;14.33;;;;;;;;;;5082812;28;20467;-75
2023/05/10 09:46:54;;;;;;;20.50;15.17;;;;;;;;;;5082147;28;21007;-75
2023/05/10 09:49:21;;;;;;;19.17;14.03;;;;;;;;;;5082213;28;20444;-74
2023/05/10 09:51:47;;;;;;;16.57;12.57;;;;;;;;;;5080875;28;20472;-75
2023/05/10 09:54:14;;;;;;;20.70;15.30;;;;;;;;;;5082374;28;20460;-74
2023/05/10 09:56:41;;;;;;;20.67;15.93;;;;;;;;;;5081243;28;20479;-74
2023/05/10 09:59:08;;;;;;;17.80;14.47;;;;;;;;;;5082140;28;20502;-74
2023/05/10 10:01:35;;;;;;;17.80;14.00;;;;;;;;;;5083729;28;21393;-75
2023/05/10 10:04:04;;;;;;;15.97;12.50;;;;;;;;;;5092434;28;20455;-75
2023/05/10 10:06:35;;;;;;;15.00;13.20;;;;;;;;;;5081958;28;20498;-75
2023/05/10 10:09:02;;;;;;;17.10;12.27;;;;;;;;;;5084653;28;20492;-75
2023/05/10 10:11:29;;;;;;;13.70;11.10;;;;;;;;;;5076542;28;21065;-74
2023/05/10 10:13:56;;;;;;;13.90;12.50;;;;;;;;;;5070741;28;20467;-76
2023/05/10 10:16:22;;;;;;;13.87;12.47;;;;;;;;;;5080669;28;20467;-76
2023/05/10 10:18:49;;;;;;;15.47;11.60;;;;;;;;;;5075805;28;20457;-76
2023/05/10 10:21:17;;;;;;;13.33;11.93;;;;;;;;;;5086722;28;20475;-76
2023/05/10 10:23:44;;;;;;;10.80;9.53;;;;;;;;;;5080791;28;20515;-76
2023/05/10 10:26:11;;;;;;;12.10;10.50;;;;;;;;;;5089822;28;20508;-76
2023/05/10 10:28:41;;;;;;;15.10;11.70;;;;;;;;;;5094208;28;21035;-76
2023/05/10 10:31:14;;;;;;;14.00;10.77;;;;;;;;;;5081429;28;20475;-76
2023/05/10 10:33:48;;;;;;;14.47;12.60;;;;;;;;;;5081263;28;20451;-76
2023/05/10 10:36:16;;;;;;;12.53;10.17;;;;;;;;;;5080335;28;20494;-76
2023/05/10 10:39:09;;;;;;;17.93;11.40;;;;;;;;;;5080001;28;20546;-76
2023/05/10 10:41:37;;;;;;;13.33;10.73;;;;;;;;;;5091730;28;20513;-76
2023/05/10 10:44:23;;;;;;;9.97;8.97;;;;;;;;;;5076025;28;20452;-77
2023/05/10 10:47:03;;;;;;;9.93;8.93;;;;;;;;;;5084950;28;20546;-77
2023/05/10 10:49:31;;;;;;;9.73;7.97;;;;;;;;;;5076259;28;20475;-77
2023/05/10 10:52:22;;;;;;;10.80;8.43;;;;;;;;;;5085625;28;20475;-76
2023/05/10 10:54:53;;;;;;;10.97;7.97;;;;;;;;;;5072879;28;20456;-77
2023/05/10 10:57:21;;;;;;;10.10;8.57;;;;;;;;;;5081263;28;20494;-76
2023/05/10 10:59:48;;;;;;;9.90;8.90;;;;;;;;;;5078637;28;20471;-76
2023/05/10 11:02:29;;;;;;;10.93;8.73;;;;;;;;;;5079409;28;20488;-76
2023/05/10 11:04:56;;;;;;;9.70;8.07;;;;;;;;;;5083567;28;20554;-78
2023/05/10 11:07:22;;;;;;;8.80;7.40;;;;;;;;;;5078807;28;20471;-79
2023/05/10 11:09:49;;;;;;;9.40;7.47;;;;;;;;;;5081501;28;20578;-79
2023/05/10 11:12:17;;;;;;;9.00;6.70;;;;;;;;;;5081109;28;20476;-78
2023/05/10 11:14:43;;;;;;;11.00;7.27;;;;;;;;;;5083254;28;20459;-77
2023/05/10 11:17:26;;;;;;;7.77;6.97;;;;;;;;;;5080579;28;20505;-78
2023/05/10 11:20:08;;;;;;;6.00;5.40;;;;;;;;;;5081363;28;20456;-77
2023/05/10 11:22:49;;;;;;;7.53;5.70;;;;;;;;;;5073397;28;20464;-77
2023/05/10 11:25:16;;;;;;;7.80;6.70;;;;;;;;;;5080415;28;20467;-77
2023/05/10 11:27:44;;;;;;;9.43;6.63;;;;;;;;;;5080222;28;20451;-78
2023/05/10 11:30:11;;;;;;;8.80;7.43;;;;;;;;;;5082025;28;20471;-78
2023/05/10 11:32:38;;;;;;;9.30;7.20;;;;;;;;;;5090997;28;20917;-78
2023/05/10 11:35:07;;;;;;;9.37;6.73;;;;;;;;;;5086084;28;20563;-77
2023/05/10 11:37:34;;;;;;;9.70;5.60;;;;;;;;;;5080536;28;20513;-78
2023/05/10 11:40:00;;;;;;;8.63;6.20;;;;;;;;;;5087772;28;20451;-78
2023/05/10 11:42:28;;;;;;;9.83;6.30;;;;;;;;;;5080546;28;20503;-77
2023/05/10 11:44:56;;;;;;;7.83;6.73;;;;;;;;;;5081665;28;20472;-78
2023/05/10 11:47:22;;;;;;;9.60;6.77;;;;;;;;;;5083641;28;20505;-78
2023/05/10 11:49:50;;;;;;;8.77;6.43;;;;;;;;;;5094000;28;20539;-78
2023/05/10 11:52:16;;;;;;;7.87;6.23;;;;;;;;;;5087786;28;20540;-78
2023/05/10 11:54:46;;;;;;;6.87;6.17;;;;;;;;;;5084452;28;20452;-77
2023/05/10 11:57:13;;;;;;;8.13;6.03;;;;;;;;;;5085885;28;20480;-78
2023/05/10 11:59:40;;;;;;;8.27;5.73;;;;;;;;;;5083442;28;20470;-77
2023/05/10 12:02:08;;;;;;;9.50;6.27;;;;;;;;;;5084819;28;20476;-78
2023/05/10 12:04:34;;;;;;;8.03;5.93;;;;;;;;;;5084437;28;20487;-77
2023/05/10 12:07:01;;;;;;;11.20;7.67;;;;;;;;;;5088314;28;20479;-78
2023/05/10 12:09:27;;;;;;;10.07;6.70;;;;;;;;;;5089547;28;20480;-77
2023/05/10 12:11:56;;;;;;;9.63;7.17;;;;;;;;;;5083865;28;20488;-77
2023/05/10 12:14:24;;;;;;;8.23;7.10;;;;;;;;;;5088821;28;20526;-77
2023/05/10 12:16:50;;;;;;;11.50;7.20;;;;;;;;;;5092460;28;20511;-78
2023/05/10 12:19:20;;;;;;;10.63;6.57;;;;;;;;;;5091462;28;20466;-77
2023/05/10 12:21:47;;;;;;;9.23;5.97;;;;;;;;;;5092577;28;20525;-77
2023/05/10 12:24:16;;;;;;;6.67;5.03;;;;;;;;;;5085790;28;20959;-76
2023/05/10 12:26:42;;;;;;;8.33;5.20;;;;;;;;;;5083811;28;20957;-77
2023/05/10 12:29:13;;;;;;;9.37;6.90;;;;;;;;;;5093640;28;20447;-77
2023/05/10 12:31:50;;;;;;;8.70;6.90;;;;;;;;;;5087977;28;20483;-77
2023/05/10 12:34:24;;;;;;;7.47;5.77;;;;;;;;;;5084472;28;20466;-77
2023/05/10 12:36:52;;;;;;;9.80;6.97;;;;;;;;;;5089596;28;20550;-77
2023/05/10 12:39:19;;;;;;;9.10;6.93;;;;;;;;;;5086826;28;20455;-77
2023/05/10 12:41:45;;;;;;;8.63;7.70;;;;;;;;;;5079302;28;20480;-76
2023/05/10 12:44:12;;;;;;;9.40;7.57;;;;;;;;;;5089180;28;20509;-76
2023/05/10 12:46:38;;;;;;;10.97;8.30;;;;;;;;;;5094395;28;20982;-77
2023/05/10 12:49:05;;;;;;;15.00;8.83;;;;;;;;;;5093856;28;20455;-77
2023/05/10 12:51:33;;;;;;;10.83;9.73;;;;;;;;;;5081913;28;20476;-77
2023/05/10 12:53:59;;;;;;;14.63;10.30;;;;;;;;;;5081792;28;20467;-76
2023/05/10 12:56:26;;;;;;;11.23;8.60;;;;;;;;;;5081975;28;20476;-76
2023/05/10 12:58:52;;;;;;;12.83;9.93;;;;;;;;;;5084605;28;20538;-76
2023/05/10 13:01:19;;;;;;;11.83;10.00;;;;;;;;;;5082635;28;20495;-76
2023/05/10 13:03:46;;;;;;;16.80;9.83;;;;;;;;;;5082541;28;20878;-76
2023/05/10 13:06:13;;;;;;;15.97;10.37;;;;;;;;;;5093971;28;20476;-77
2023/05/10 13:08:41;;;;;;;9.83;8.53;;;;;;;;;;5086701;28;20475;-76
2023/05/10 13:11:08;;;;;;;12.00;9.67;;;;;;;;;;5081014;28;20482;-76
2023/05/10 13:13:34;;;;;;;11.33;8.20;;;;;;;;;;5081888;28;20483;-76
2023/05/10 13:16:01;;;;;;;11.77;9.53;;;;;;;;;;5081896;28;20508;-76
2023/05/10 13:18:27;;;;;;;8.60;7.50;;;;;;;;;;5086266;28;20538;-77
2023/05/10 13:20:55;;;;;;;9.80;8.67;;;;;;;;;;5079147;28;20671;-77
2023/05/10 13:23:21;;;;;;;10.27;8.67;;;;;;;;;;5083897;28;20474;-76
2023/05/10 13:25:50;;;;;;;11.37;9.00;;;;;;;;;;5084189;28;20817;-77
2023/05/10 13:28:16;;;;;;;15.83;10.57;;;;;;;;;;5087495;28;20452;-76
2023/05/10 13:30:43;;;;;;;11.93;9.17;;;;;;;;;;5085210;28;20471;-76
2023/05/10 13:33:09;;;;;;;14.87;10.10;;;;;;;;;;5077707;28;20488;-76
2023/05/10 13:35:36;;;;;;;15.83;9.80;;;;;;;;;;5081469;28;20476;-76
2023/05/10 13:38:02;;;;;;;12.10;10.80;;;;;;;;;;5084513;28;20514;-75
2023/05/10 13:40:29;;;;;;;12.23;10.80;;;;;;;;;;5082371;28;20471;-75
2023/05/10 13:42:57;;;;;;;12.67;10.03;;;;;;;;;;5085144;28;20455;-75
2023/05/10 13:45:23;;;;;;;11.73;9.50;;;;;;;;;;5087862;28;20486;-77
2023/05/10 13:47:50;;;;;;;17.40;11.07;;;;;;;;;;5084482;28;21039;-76
2023/05/10 13:50:16;;;;;;;12.70;10.10;;;;;;;;;;5083569;28;20513;-76
2023/05/10 13:52:43;;;;;;;14.10;10.50;;;;;;;;;;5092904;28;20486;-76
2023/05/10 13:55:12;;;;;;;14.90;11.70;;;;;;;;;;5083326;28;20452;-76
2023/05/10 13:57:38;;;;;;;22.00;13.23;;;;;;;;;;5084470;28;20460;-75
2023/05/10 14:00:07;;;;;;;16.27;13.60;;;;;;;;;;5083777;28;21238;-75
2023/05/10 14:02:34;;;;;;;18.23;13.60;;;;;;;;;;5079074;28;20555;-75
2023/05/10 14:05:01;;;;;;;20.00;13.10;;;;;;;;;;5083946;28;20530;-74
2023/05/10 14:07:27;;;;;;;16.77;13.20;;;;;;;;;;5081790;28;20800;-74
2023/05/10 14:09:54;;;;;;;18.27;13.90;;;;;;;;;;5082761;28;20442;-74
2023/05/10 14:12:21;;;;;;;15.50;12.40;;;;;;;;;;5078615;28;20252;-75
2023/05/10 14:14:47;;;;;;;15.97;11.90;;;;;;;;;;5081428;28;20519;-73
2023/05/10 14:17:17;;;;;;;18.07;12.83;;;;;;;;;;5080935;28;20476;-75
2023/05/10 14:19:44;;;;;;;22.07;12.80;;;;;;;;;;5079500;28;20984;-75
2023/05/10 14:22:10;;;;;;;16.97;12.87;;;;;;;;;;5085361;28;20479;-75
2023/05/10 14:24:37;;;;;;;18.07;12.03;;;;;;;;;;5083332;28;20448;-75
2023/05/10 14:27:03;;;;;;;15.37;12.23;;;;;;;;;;5085208;28;20491;-75
2023/05/10 14:29:30;;;;;;;19.93;13.63;;;;;;;;;;5081503;28;20455;-74
2023/05/10 14:31:56;;;;;;;15.30;12.53;;;;;;;;;;5081318;28;20484;-74
2023/05/10 14:34:24;;;;;;;19.60;13.83;;;;;;;;;;5079928;28;20951;-75